createdAt,value
2023-04-11T00:02:20.293Z,3.58
2023-04-11T00:05:04.189Z,2.90
2023-04-11T00:07:34.037Z,2.30
2023-04-11T00:10:07.493Z,2.60
2023-04-11T00:12:37.455Z,3.03
2023-04-11T00:15:36.187Z,2.58
2023-04-11T00:18:15.130Z,2.90
2023-04-11T00:20:46.156Z,2.55
2023-04-11T00:23:16.560Z,2.28
2023-04-11T00:25:43.592Z,2.58
2023-04-11T00:28:16.300Z,2.70
2023-04-11T00:30:46.495Z,2.22
2023-04-11T00:33:13.558Z,2.35
2023-04-11T00:35:41.518Z,2.80
2023-04-11T00:38:13.902Z,1.70
2023-04-11T00:40:41.512Z,1.65
2023-04-11T00:43:11.436Z,2.60
2023-04-11T00:45:41.400Z,2.28
2023-04-11T00:48:15.393Z,1.88
2023-04-11T00:50:51.065Z,2.67
2023-04-11T00:53:18.907Z,2.92
2023-04-11T00:55:51.594Z,2.75
2023-04-11T00:58:21.739Z,2.40
2023-04-11T01:00:55.592Z,1.90
2023-04-11T01:03:30.386Z,2.55
2023-04-11T01:06:09.363Z,1.85
2023-04-11T01:08:38.902Z,2.10
2023-04-11T01:11:08.263Z,2.58
2023-04-11T01:13:42.096Z,1.67
2023-04-11T01:16:15.163Z,3.33
2023-04-11T01:18:46.408Z,2.03
2023-04-11T01:21:15.995Z,2.00
2023-04-11T01:23:45.550Z,2.72
2023-04-11T01:26:15.145Z,2.00
2023-04-11T01:28:48.426Z,2.08
2023-04-11T01:31:18.320Z,2.05
2023-04-11T01:33:45.568Z,1.83
2023-04-11T01:36:25.136Z,2.22
2023-04-11T01:38:58.491Z,2.20
2023-04-11T01:41:32.908Z,2.13
2023-04-11T01:44:03.203Z,1.95
2023-04-11T01:46:30.724Z,2.30
2023-04-11T01:49:01.477Z,1.90
2023-04-11T01:51:32.377Z,2.60
2023-04-11T01:54:02.785Z,2.90
2023-04-11T01:56:33.194Z,2.50
2023-04-11T01:59:04.872Z,2.17
2023-04-11T02:01:32.200Z,2.10
2023-04-11T02:04:02.175Z,1.98
2023-04-11T02:06:32.260Z,2.50
2023-04-11T02:09:02.254Z,2.15
2023-04-11T02:11:34.735Z,2.50
2023-04-11T02:14:16.988Z,2.67
2023-04-11T02:16:55.699Z,2.05
2023-04-11T02:19:26.459Z,1.80
2023-04-11T02:21:56.031Z,1.77
2023-04-11T02:24:34.046Z,1.77
2023-04-11T02:27:02.025Z,2.20
2023-04-11T02:29:29.779Z,2.60
2023-04-11T02:32:04.165Z,2.20
2023-04-11T02:34:32.661Z,2.05
2023-04-11T02:37:02.454Z,1.70
2023-04-11T02:39:29.543Z,2.00
2023-04-11T02:42:00.777Z,1.98
2023-04-11T02:44:33.251Z,2.08
2023-04-11T02:47:00.369Z,1.92
2023-04-11T02:49:28.713Z,1.80
2023-04-11T02:51:56.386Z,2.40
2023-04-11T02:54:28.898Z,1.60
2023-04-11T02:56:56.801Z,2.10
2023-04-11T02:59:26.414Z,2.22
2023-04-11T03:02:13.530Z,1.58
2023-04-11T03:04:41.472Z,2.13
2023-04-11T03:07:08.861Z,1.65
2023-04-11T03:09:37.180Z,2.28
2023-04-11T03:12:05.282Z,2.08
2023-04-11T03:14:32.400Z,2.33
2023-04-11T03:17:04.198Z,2.83
2023-04-11T03:19:31.520Z,1.77
2023-04-11T03:22:03.394Z,1.98
2023-04-11T03:24:34.708Z,1.60
2023-04-11T03:27:01.895Z,1.85
2023-04-11T03:29:36.478Z,2.22
2023-04-11T03:32:04.273Z,1.92
2023-04-11T03:34:34.121Z,1.58
2023-04-11T03:37:01.189Z,2.15
2023-04-11T03:39:30.484Z,2.00
2023-04-11T03:42:20.332Z,1.83
2023-04-11T03:44:49.524Z,2.20
2023-04-11T03:47:20.307Z,1.95
2023-04-11T03:49:52.885Z,1.63
2023-04-11T03:52:20.026Z,1.25
2023-04-11T03:55:06.659Z,1.40
2023-04-11T03:57:35.211Z,1.80
2023-04-11T04:00:04.167Z,1.42
2023-04-11T04:02:31.304Z,1.58
2023-04-11T04:07:29.729Z,1.50
2023-04-11T04:09:56.788Z,2.15
2023-04-11T04:12:28.648Z,1.58
2023-04-11T04:15:11.926Z,1.63
2023-04-11T04:17:39.999Z,1.58
2023-04-11T04:20:13.970Z,1.70
2023-04-11T04:22:42.065Z,1.38
2023-04-11T04:25:12.833Z,1.80
2023-04-11T04:27:44.323Z,1.65
2023-04-11T04:30:18.975Z,1.73
2023-04-11T04:32:48.783Z,1.63
2023-04-11T04:35:25.508Z,2.13
2023-04-11T04:37:57.754Z,1.88
2023-04-11T04:40:32.454Z,1.60
2023-04-11T04:43:06.316Z,1.73
2023-04-11T04:45:39.615Z,2.08
2023-04-11T04:48:13.034Z,1.40
2023-04-11T04:50:45.797Z,1.40
2023-04-11T04:53:18.702Z,1.40
2023-04-11T04:55:52.671Z,1.20
2023-04-11T04:58:20.794Z,1.63
2023-04-11T05:00:57.299Z,1.45
2023-04-11T05:03:30.870Z,1.48
2023-04-11T05:06:02.763Z,1.55
2023-04-11T05:08:35.324Z,1.23
2023-04-11T05:11:04.907Z,1.17
2023-04-11T05:13:46.149Z,1.27
2023-04-11T05:16:18.701Z,1.50
2023-04-11T05:18:46.614Z,1.40
2023-04-11T05:21:19.998Z,1.90
2023-04-11T05:23:47.051Z,1.73
2023-04-11T05:26:15.610Z,1.70
2023-04-11T05:28:43.236Z,1.70
2023-04-11T05:31:15.711Z,1.88
2023-04-11T05:33:46.209Z,1.60
2023-04-11T05:36:16.665Z,1.58
2023-04-11T05:38:45.569Z,1.45
2023-04-11T05:41:16.035Z,1.38
2023-04-11T05:43:45.732Z,1.85
2023-04-11T05:46:17.848Z,1.50
2023-04-11T05:48:48.009Z,1.70
2023-04-11T05:51:15.187Z,1.48
2023-04-11T05:53:44.698Z,1.98
2023-04-11T05:56:13.077Z,1.52
2023-04-11T05:58:43.079Z,1.42
2023-04-11T06:01:18.837Z,1.58
2023-04-11T06:03:49.097Z,1.70
2023-04-11T06:06:19.509Z,2.42
2023-04-11T06:08:47.981Z,2.30
2023-04-11T06:11:15.085Z,1.90
2023-04-11T06:13:45.837Z,1.88
2023-04-11T06:16:14.735Z,1.83
2023-04-11T06:18:47.743Z,1.83
2023-04-11T06:21:17.585Z,1.70
2023-04-11T06:23:45.625Z,1.95
2023-04-11T06:26:13.801Z,1.70
2023-04-11T06:28:41.684Z,1.83
2023-04-11T06:31:09.790Z,2.20
2023-04-11T06:33:37.761Z,1.60
2023-04-11T06:36:06.653Z,2.30
2023-04-11T06:38:40.323Z,1.77
2023-04-11T06:41:07.638Z,2.00
2023-04-11T06:43:35.071Z,2.00
2023-04-11T06:46:08.462Z,1.75
2023-04-11T06:48:35.704Z,1.63
2023-04-11T06:51:03.018Z,1.70
2023-04-11T06:53:33.626Z,1.58
2023-04-11T06:56:11.310Z,1.50
2023-04-11T06:58:38.446Z,1.70
2023-04-11T07:01:06.908Z,2.03
2023-04-11T07:03:34.101Z,1.83
2023-04-11T07:06:01.956Z,2.40
2023-04-11T07:10:59.922Z,1.90
2023-04-11T07:13:28.318Z,1.83
2023-04-11T07:16:01.559Z,1.67
2023-04-11T07:18:30.616Z,2.03
2023-04-11T07:21:20.233Z,2.60
2023-04-11T07:23:54.473Z,2.30
2023-04-11T07:26:23.974Z,2.08
2023-04-11T07:28:53.160Z,1.80
2023-04-11T07:31:23.229Z,2.03
2023-04-11T07:33:53.647Z,1.63
2023-04-11T07:36:25.830Z,2.08
2023-04-11T07:38:55.444Z,1.80
2023-04-11T07:41:30.034Z,2.15
2023-04-11T07:44:00.966Z,2.53
2023-04-11T07:46:31.262Z,2.45
2023-04-11T07:48:58.392Z,1.80
2023-04-11T07:51:31.149Z,1.80
2023-04-11T07:53:58.527Z,2.05
2023-04-11T07:56:25.721Z,2.03
2023-04-11T07:58:52.890Z,2.00
2023-04-11T08:01:30.105Z,1.90
2023-04-11T08:04:02.075Z,2.60
2023-04-11T08:06:29.756Z,2.40
2023-04-11T08:08:58.840Z,2.15
2023-04-11T08:11:26.711Z,2.60
2023-04-11T08:16:21.457Z,2.53
2023-04-11T08:18:51.345Z,2.85
2023-04-11T08:23:58.179Z,2.17
2023-04-11T08:26:28.866Z,3.13
2023-04-11T08:28:59.014Z,2.65
2023-04-11T08:31:35.392Z,2.25
2023-04-11T08:34:06.914Z,2.38
2023-04-11T08:36:35.410Z,2.58
2023-04-11T08:39:02.934Z,2.38
2023-04-11T08:41:31.519Z,2.33
2023-04-11T08:43:59.474Z,2.60
2023-04-11T08:46:27.083Z,2.72
2023-04-11T08:49:01.050Z,2.65
2023-04-11T08:51:31.668Z,2.75
2023-04-11T08:54:05.983Z,2.42
2023-04-11T08:56:36.134Z,2.88
2023-04-11T08:59:03.319Z,2.92
2023-04-11T09:01:37.265Z,2.65
2023-04-11T09:04:06.779Z,2.47
2023-04-11T09:06:34.850Z,2.60
2023-04-11T09:09:08.245Z,2.53
2023-04-11T09:11:57.398Z,2.78
2023-04-11T09:14:27.049Z,2.15
2023-04-11T09:17:03.028Z,2.67
2023-04-11T09:19:35.646Z,5.22
2023-04-11T09:22:06.710Z,6.22
2023-04-11T09:24:42.232Z,4.95
2023-04-11T09:27:19.673Z,3.22
2023-04-11T09:29:50.448Z,2.65
2023-04-11T09:32:31.138Z,4.10
2023-04-11T09:35:18.629Z,4.55
2023-04-11T09:38:09.877Z,4.05
2023-04-11T09:40:46.249Z,2.88
2023-04-11T09:43:13.340Z,2.83
2023-04-11T09:45:51.639Z,2.67
2023-04-11T09:48:31.996Z,3.00
2023-04-11T09:51:07.045Z,1.60
2023-04-11T09:53:38.135Z,1.33
2023-04-11T09:56:08.660Z,1.40
2023-04-11T09:58:38.573Z,1.85
2023-04-11T10:01:10.577Z,1.83
2023-04-11T10:03:41.975Z,1.85
2023-04-11T10:06:41.484Z,1.58
2023-04-11T10:09:13.644Z,1.23
2023-04-11T10:11:48.699Z,0.80
2023-04-11T10:14:45.449Z,1.35
2023-04-11T10:17:24.377Z,2.13
2023-04-11T10:20:03.173Z,1.65
2023-04-11T10:22:45.144Z,1.00
2023-04-11T10:25:22.303Z,1.90
2023-04-11T10:28:00.852Z,1.98
2023-04-11T10:30:42.880Z,1.80
2023-04-11T10:33:26.515Z,1.50
2023-04-11T10:35:59.843Z,1.90
2023-04-11T10:38:44.788Z,2.00
2023-04-11T10:41:41.411Z,1.63
2023-04-11T10:44:21.491Z,3.13
2023-04-11T10:46:56.453Z,2.22
2023-04-11T10:49:39.483Z,1.17
2023-04-11T10:52:24.978Z,1.42
2023-04-11T10:54:54.397Z,1.85
2023-04-11T10:57:32.226Z,2.33
2023-04-11T11:00:17.016Z,2.13
2023-04-11T11:02:47.575Z,1.88
2023-04-11T11:05:22.746Z,2.38
2023-04-11T11:07:58.562Z,1.83
2023-04-11T11:10:46.719Z,1.60
2023-04-11T11:13:23.331Z,1.13
2023-04-11T11:16:02.872Z,1.42
2023-04-11T11:18:30.875Z,2.00
2023-04-11T11:21:00.234Z,1.75
2023-04-11T11:23:33.959Z,1.35
2023-04-11T11:26:12.086Z,1.55
2023-04-11T11:28:48.335Z,1.02
2023-04-11T11:31:18.065Z,1.48
2023-04-11T11:33:45.190Z,1.83
2023-04-11T11:38:46.496Z,1.25
2023-04-11T11:41:13.702Z,1.13
2023-04-11T11:43:44.131Z,1.70
2023-04-11T11:46:21.456Z,1.70
2023-04-11T11:49:13.566Z,1.35
2023-04-11T11:51:49.712Z,1.58
2023-04-11T11:54:22.402Z,1.73
2023-04-11T11:56:52.996Z,1.33
2023-04-11T11:59:28.446Z,1.80
2023-04-11T12:01:56.637Z,1.65
2023-04-11T12:04:24.596Z,1.70
2023-04-11T12:06:54.088Z,0.93
2023-04-11T12:09:21.170Z,1.17
2023-04-11T12:14:24.386Z,1.63
2023-04-11T12:19:30.302Z,1.27
2023-04-11T12:22:04.706Z,1.63
2023-04-11T12:24:40.083Z,1.73
2023-04-11T12:27:17.582Z,1.42
2023-04-11T12:29:48.481Z,1.67
2023-04-11T12:32:18.288Z,1.90
2023-04-11T12:34:48.426Z,1.95
2023-04-11T12:37:18.745Z,2.15
2023-04-11T12:39:50.406Z,2.47
2023-04-11T12:42:27.401Z,2.05
2023-04-11T12:45:14.356Z,1.13
2023-04-11T12:47:48.474Z,1.45
2023-04-11T12:50:15.605Z,1.98
2023-04-11T12:52:42.874Z,1.00
2023-04-11T12:55:13.926Z,1.33
2023-04-11T12:57:43.652Z,2.10
2023-04-11T13:00:19.362Z,1.95
2023-04-11T13:02:47.136Z,2.10
2023-04-11T13:05:22.838Z,1.75
2023-04-11T13:07:58.136Z,1.15
2023-04-11T13:10:27.880Z,2.10
2023-04-11T13:13:05.438Z,1.55
2023-04-11T13:15:46.916Z,2.33
2023-04-11T13:18:20.594Z,1.65
2023-04-11T13:20:47.822Z,1.50
2023-04-11T13:25:45.084Z,1.92
2023-04-11T13:28:12.552Z,2.20
2023-04-11T13:30:42.176Z,1.08
2023-04-11T13:33:09.868Z,1.63
2023-04-11T13:35:47.394Z,1.52
2023-04-11T13:38:21.390Z,1.00
2023-04-11T13:40:48.581Z,1.30
2023-04-11T13:45:51.037Z,1.55
2023-04-11T13:48:21.840Z,1.80
2023-04-11T13:50:53.913Z,1.58
2023-04-11T13:53:25.456Z,1.77
2023-04-11T13:55:53.598Z,0.90
2023-04-11T13:58:20.715Z,1.50
2023-04-11T14:03:24.126Z,1.58
2023-04-11T14:05:53.619Z,1.90
2023-04-11T14:08:23.144Z,1.65
2023-04-11T14:10:52.690Z,2.00
2023-04-11T14:13:21.760Z,1.98
2023-04-11T14:16:08.101Z,1.40
2023-04-11T14:18:47.689Z,1.00
2023-04-11T14:21:14.851Z,1.20
2023-04-11T14:26:27.029Z,1.50
2023-04-11T14:28:56.176Z,0.90
2023-04-11T14:31:24.192Z,1.13
2023-04-11T14:33:53.759Z,1.02
2023-04-11T14:36:22.261Z,1.48
2023-04-11T14:38:50.443Z,2.13
2023-04-11T14:41:20.230Z,1.70
2023-04-11T14:43:52.155Z,1.27
2023-04-11T14:46:25.575Z,1.23
2023-04-11T14:51:39.282Z,1.83
2023-04-11T14:54:13.748Z,1.05
2023-04-11T14:56:53.575Z,1.33
2023-04-11T14:59:21.027Z,1.00
2023-04-11T15:01:52.985Z,1.30
2023-04-11T15:04:22.454Z,1.00
2023-04-11T15:06:51.098Z,1.02
2023-04-11T15:09:21.087Z,1.00
2023-04-11T15:11:51.714Z,1.00
2023-04-11T15:14:29.604Z,0.80
2023-04-11T15:17:07.288Z,1.02
2023-04-11T15:19:39.362Z,0.98
2023-04-11T15:22:14.545Z,0.80
2023-04-11T15:24:44.509Z,1.00
2023-04-11T15:27:12.685Z,1.55
2023-04-11T15:29:40.271Z,1.27
2023-04-11T15:32:16.291Z,1.20
2023-04-11T15:34:48.445Z,1.27
2023-04-11T15:37:19.414Z,1.50
2023-04-11T15:39:48.255Z,1.30
2023-04-11T15:42:16.890Z,2.00
2023-04-11T15:44:47.862Z,1.10
2023-04-11T15:47:17.605Z,1.85
2023-04-11T15:49:48.145Z,1.27
2023-04-11T15:52:16.795Z,1.73
2023-04-11T15:54:56.586Z,1.58
2023-04-11T15:57:30.495Z,1.77
2023-04-11T16:00:06.059Z,1.58
2023-04-11T16:02:47.521Z,1.83
2023-04-11T16:05:15.485Z,1.33
2023-04-11T16:07:48.649Z,1.73
2023-04-11T16:10:16.972Z,2.10
2023-04-11T16:12:50.487Z,1.20
2023-04-11T16:15:20.502Z,2.03
2023-04-11T16:17:50.810Z,1.73
2023-04-11T16:20:22.973Z,2.15
2023-04-11T16:22:50.089Z,1.30
2023-04-11T16:25:21.702Z,1.30
2023-04-11T16:28:00.789Z,1.88
2023-04-11T16:30:32.312Z,1.70
2023-04-11T16:33:02.383Z,1.25
2023-04-11T16:35:32.083Z,1.42
2023-04-11T16:38:06.908Z,1.33
2023-04-11T16:40:39.880Z,1.80
2023-04-11T16:43:10.472Z,1.60
2023-04-11T16:45:42.613Z,1.83
2023-04-11T16:48:11.875Z,1.75
2023-04-11T16:50:39.215Z,1.55
2023-04-11T16:55:38.782Z,1.02
2023-04-11T16:58:10.737Z,1.10
2023-04-11T17:00:45.752Z,1.90
2023-04-11T17:03:13.126Z,2.10
2023-04-11T17:05:43.185Z,1.25
2023-04-11T17:08:13.780Z,1.92
2023-04-11T17:10:45.799Z,1.90
2023-04-11T17:13:27.297Z,2.30
2023-04-11T17:15:56.276Z,2.17
2023-04-11T17:18:31.014Z,1.63
2023-04-11T17:20:59.483Z,2.00
2023-04-11T17:23:41.232Z,2.08
2023-04-11T17:26:09.635Z,2.55
2023-04-11T17:28:41.063Z,1.27
2023-04-11T17:31:19.327Z,1.52
2023-04-11T17:33:57.047Z,1.88
2023-04-11T17:36:24.659Z,1.13
2023-04-11T17:38:57.512Z,1.00
2023-04-11T17:41:28.225Z,1.20
2023-04-11T17:43:58.773Z,1.42
2023-04-11T17:46:36.216Z,0.90
2023-04-11T17:49:09.494Z,1.27
2023-04-11T17:51:40.857Z,1.80
2023-04-11T17:54:10.018Z,1.33
2023-04-11T17:56:37.454Z,1.17
2023-04-11T18:01:39.535Z,1.00
2023-04-11T18:04:16.005Z,1.15
2023-04-11T18:06:46.411Z,1.83
2023-04-11T18:09:22.962Z,1.60
2023-04-11T18:11:50.067Z,2.70
2023-04-11T18:14:17.798Z,2.80
2023-04-11T18:16:46.991Z,2.58
2023-04-11T18:19:15.626Z,3.40
2023-04-11T18:21:57.497Z,3.30
2023-04-11T18:24:24.559Z,2.47
2023-04-11T18:26:51.749Z,2.30
2023-04-11T18:29:18.871Z,2.30
2023-04-11T18:31:52.149Z,1.92
2023-04-11T18:34:19.413Z,1.50
2023-04-11T18:36:48.142Z,1.52
2023-04-11T18:39:27.859Z,1.80
2023-04-11T18:41:59.299Z,2.08
2023-04-11T18:44:26.732Z,1.20
2023-04-11T18:47:01.639Z,0.88
2023-04-11T18:49:34.905Z,0.47
2023-04-11T18:52:02.344Z,2.05
2023-04-11T18:57:05.868Z,2.17
2023-04-11T18:59:38.612Z,3.08
2023-04-11T19:02:25.637Z,3.00
2023-04-11T19:04:57.344Z,2.67
2023-04-11T19:07:30.031Z,3.28
2023-04-11T19:10:14.567Z,3.40
2023-04-11T19:12:42.665Z,3.90
2023-04-11T19:15:13.527Z,3.60
2023-04-11T19:17:41.958Z,3.33
2023-04-11T19:20:16.758Z,2.90
2023-04-11T19:22:46.922Z,3.33
2023-04-11T19:25:19.509Z,2.70
2023-04-11T19:27:47.394Z,2.60
2023-04-11T19:30:17.517Z,2.83
2023-04-11T19:32:51.804Z,2.60
2023-04-11T19:35:26.762Z,2.60
2023-04-11T19:40:43.021Z,3.53
2023-04-11T19:43:11.784Z,3.13
2023-04-11T19:45:39.051Z,3.25
2023-04-11T19:48:06.419Z,2.60
2023-04-11T19:50:33.778Z,2.20
2023-04-11T19:53:06.554Z,2.65
2023-04-11T19:55:40.238Z,3.28
2023-04-11T19:58:13.308Z,3.67
2023-04-11T20:00:41.250Z,4.82
2023-04-11T20:03:18.050Z,5.88
2023-04-11T20:05:51.764Z,5.40
2023-04-11T20:08:22.278Z,3.85
2023-04-11T20:10:52.549Z,3.47
2023-04-11T20:13:23.919Z,3.90
2023-04-11T20:15:51.153Z,3.75
2023-04-11T20:18:18.446Z,4.78
2023-04-11T20:20:48.927Z,4.05
2023-04-11T20:23:18.787Z,4.10
2023-04-11T20:25:46.217Z,3.30
2023-04-11T20:31:00.525Z,4.15
2023-04-11T20:33:28.193Z,4.00
2023-04-11T20:35:58.574Z,4.18
2023-04-11T20:38:28.608Z,5.00
2023-04-11T20:40:58.079Z,5.68
2023-04-11T20:43:28.116Z,6.95
2023-04-11T20:45:58.205Z,8.55
2023-04-11T20:48:27.898Z,5.28
2023-04-11T20:50:55.904Z,6.35
2023-04-11T20:53:25.586Z,6.00
2023-04-11T20:55:54.576Z,4.65
2023-04-11T20:58:23.419Z,5.22
2023-04-11T21:00:50.812Z,4.88
2023-04-11T21:03:18.334Z,4.70
2023-04-11T21:05:48.355Z,6.97
2023-04-11T21:08:29.402Z,7.72
2023-04-11T21:11:02.030Z,5.60
2023-04-11T21:13:32.140Z,4.93
2023-04-11T21:16:02.115Z,4.82
2023-04-11T21:18:30.550Z,5.80
2023-04-11T21:20:59.623Z,4.83
2023-04-11T21:23:27.902Z,4.65
2023-04-11T21:25:58.928Z,5.13
2023-04-11T21:28:38.124Z,4.75
2023-04-11T21:31:06.726Z,5.97
2023-04-11T21:33:35.020Z,6.28
2023-04-11T21:36:02.330Z,5.15
2023-04-11T21:38:35.434Z,4.20
2023-04-11T21:41:08.177Z,4.32
2023-04-11T21:43:44.753Z,4.45
2023-04-11T21:46:16.507Z,4.40
2023-04-11T21:49:09.522Z,3.80
2023-04-11T21:51:56.874Z,5.20
2023-04-11T21:54:29.885Z,4.57
2023-04-11T21:56:59.279Z,4.22
2023-04-11T21:59:26.750Z,4.25
2023-04-11T22:01:58.905Z,5.25
2023-04-11T22:04:30.555Z,4.35
2023-04-11T22:07:00.606Z,4.63
2023-04-11T22:09:27.743Z,4.72
2023-04-11T22:17:00.961Z,3.63
2023-04-11T22:19:37.631Z,4.07
2023-04-11T22:22:09.955Z,4.80
2023-04-11T22:24:54.704Z,4.43
2023-04-11T22:27:27.488Z,4.03
2023-04-11T22:29:56.674Z,4.65
2023-04-11T22:32:27.861Z,4.18
2023-04-11T22:35:00.495Z,4.47
2023-04-11T22:37:27.587Z,4.18
2023-04-11T22:40:02.739Z,3.95
2023-04-11T22:42:32.767Z,3.58
2023-04-11T22:45:04.132Z,3.55
2023-04-11T22:47:34.658Z,2.97
2023-04-11T22:50:06.572Z,2.90
2023-04-11T22:52:37.011Z,3.50
2023-04-11T22:55:10.608Z,3.30
2023-04-11T22:57:42.414Z,2.92
2023-04-11T23:00:19.346Z,2.78
2023-04-11T23:02:47.139Z,3.08
2023-04-11T23:05:15.256Z,3.40
2023-04-11T23:07:47.472Z,2.97
2023-04-11T23:10:15.601Z,3.15
2023-04-11T23:12:45.016Z,2.95
2023-04-11T23:15:12.648Z,2.90
2023-04-11T23:20:17.981Z,2.47
2023-04-11T23:22:47.676Z,2.70
2023-04-11T23:25:17.868Z,2.50
2023-04-11T23:27:53.923Z,3.03
2023-04-11T23:30:23.835Z,3.00
2023-04-11T23:32:53.373Z,2.97
2023-04-11T23:35:29.875Z,3.17
2023-04-11T23:37:59.588Z,3.22
2023-04-11T23:40:27.339Z,3.08
2023-04-11T23:42:54.846Z,2.65
2023-04-11T23:47:57.517Z,2.88
2023-04-11T23:50:32.651Z,3.67
2023-04-11T23:53:02.520Z,3.58
2023-04-11T23:55:37.452Z,2.97
2023-04-11T23:58:08.324Z,2.92
